sensor_id;sensor_type;location;lat;lon;timestamp;pressure;altitude;pressure_sealevel;temperature;humidity
14117;BME280;7137;51.436;6.544;2023-12-28T00:02:42;100626.69;;;10.33;91.36
14117;BME280;7137;51.436;6.544;2023-12-28T00:05:44;100629.41;;;10.30;91.52
14117;BME280;7137;51.436;6.544;2023-12-28T00:08:45;100630.25;;;10.31;91.57
14117;BME280;7137;51.436;6.544;2023-12-28T00:11:47;100632.16;;;10.26;92.59
14117;BME280;7137;51.436;6.544;2023-12-28T00:14:50;100633.16;;;10.20;93.53
14117;BME280;7137;51.436;6.544;2023-12-28T00:17:51;100643.72;;;10.17;93.10
14117;BME280;7137;51.436;6.544;2023-12-28T00:20:53;100641.22;;;10.12;95.20
14117;BME280;7137;51.436;6.544;2023-12-28T00:23:54;100635.25;;;10.09;94.37
14117;BME280;7137;51.436;6.544;2023-12-28T00:26:56;100635.13;;;10.14;94.76
14117;BME280;7137;51.436;6.544;2023-12-28T00:29:59;100650.75;;;10.15;94.82
14117;BME280;7137;51.436;6.544;2023-12-28T00:33:00;100637.00;;;10.08;94.35
14117;BME280;7137;51.436;6.544;2023-12-28T00:36:03;100643.03;;;10.10;94.58
14117;BME280;7137;51.436;6.544;2023-12-28T00:39:04;100642.97;;;10.12;94.46
14117;BME280;7137;51.436;6.544;2023-12-28T00:42:06;100640.53;;;10.07;93.03
14117;BME280;7137;51.436;6.544;2023-12-28T00:45:09;100646.44;;;10.12;94.71
14117;BME280;7137;51.436;6.544;2023-12-28T00:48:11;100651.59;;;10.16;93.83
14117;BME280;7137;51.436;6.544;2023-12-28T00:51:13;100653.41;;;10.14;93.38
14117;BME280;7137;51.436;6.544;2023-12-28T00:54:15;100656.97;;;10.09;92.72
14117;BME280;7137;51.436;6.544;2023-12-28T00:57:16;100657.84;;;10.10;93.93
14117;BME280;7137;51.436;6.544;2023-12-28T01:00:19;100665.88;;;10.04;93.82
14117;BME280;7137;51.436;6.544;2023-12-28T01:03:21;100673.59;;;10.07;92.58
14117;BME280;7137;51.436;6.544;2023-12-28T01:06:23;100661.13;;;10.17;93.04
14117;BME280;7137;51.436;6.544;2023-12-28T01:09:28;100661.09;;;10.18;92.93
14117;BME280;7137;51.436;6.544;2023-12-28T01:12:29;100657.63;;;10.18;93.68
14117;BME280;7137;51.436;6.544;2023-12-28T01:15:32;100669.75;;;10.19;92.29
14117;BME280;7137;51.436;6.544;2023-12-28T01:18:33;100660.19;;;10.19;93.13
14117;BME280;7137;51.436;6.544;2023-12-28T01:21:35;100665.56;;;10.13;94.46
14117;BME280;7137;51.436;6.544;2023-12-28T01:24:36;100665.56;;;10.15;93.34
14117;BME280;7137;51.436;6.544;2023-12-28T01:27:38;100667.38;;;10.11;94.29
14117;BME280;7137;51.436;6.544;2023-12-28T01:30:41;100673.41;;;10.13;95.14
14117;BME280;7137;51.436;6.544;2023-12-28T01:33:44;100683.88;;;10.11;95.23
14117;BME280;7137;51.436;6.544;2023-12-28T01:36:45;100671.44;;;10.21;95.51
14117;BME280;7137;51.436;6.544;2023-12-28T01:39:47;100682.81;;;10.19;96.18
14117;BME280;7137;51.436;6.544;2023-12-28T01:42:48;100698.41;;;10.22;95.50
14117;BME280;7137;51.436;6.544;2023-12-28T01:45:51;100703.47;;;10.26;95.44
14117;BME280;7137;51.436;6.544;2023-12-28T01:48:53;100706.88;;;10.30;96.71
14117;BME280;7137;51.436;6.544;2023-12-28T01:51:55;100700.75;;;10.31;96.25
14117;BME280;7137;51.436;6.544;2023-12-28T01:54:57;100697.88;;;10.38;96.46
14117;BME280;7137;51.436;6.544;2023-12-28T01:57:58;100712.69;;;10.38;96.57
14117;BME280;7137;51.436;6.544;2023-12-28T02:01:01;100708.22;;;10.43;96.63
14117;BME280;7137;51.436;6.544;2023-12-28T02:04:03;100708.22;;;10.43;97.07
14117;BME280;7137;51.436;6.544;2023-12-28T02:07:05;100715.22;;;10.41;97.40
14117;BME280;7137;51.436;6.544;2023-12-28T02:10:07;100711.81;;;10.39;97.72
14117;BME280;7137;51.436;6.544;2023-12-28T02:13:09;100712.66;;;10.39;97.62
14117;BME280;7137;51.436;6.544;2023-12-28T02:16:15;100705.94;;;10.32;98.51
14117;BME280;7137;51.436;6.544;2023-12-28T02:19:25;100709.34;;;10.34;98.45
14117;BME280;7137;51.436;6.544;2023-12-28T02:22:27;100717.31;;;10.30;99.66
14117;BME280;7137;51.436;6.544;2023-12-28T02:25:31;100710.41;;;10.27;100.00
14117;BME280;7137;51.436;6.544;2023-12-28T02:28:33;100708.69;;;10.26;99.41
14117;BME280;7137;51.436;6.544;2023-12-28T02:31:39;100721.63;;;10.31;99.29
14117;BME280;7137;51.436;6.544;2023-12-28T02:34:44;100712.06;;;10.31;99.62
14117;BME280;7137;51.436;6.544;2023-12-28T02:37:51;100713.84;;;10.29;100.00
14117;BME280;7137;51.436;6.544;2023-12-28T02:40:55;100707.72;;;10.30;100.00
14117;BME280;7137;51.436;6.544;2023-12-28T02:43:57;100712.75;;;10.36;100.00
14117;BME280;7137;51.436;6.544;2023-12-28T02:46:59;100714.41;;;10.39;99.79
14117;BME280;7137;51.436;6.544;2023-12-28T02:50:01;100717.88;;;10.39;100.00
14117;BME280;7137;51.436;6.544;2023-12-28T02:53:03;100716.09;;;10.42;99.34
14117;BME280;7137;51.436;6.544;2023-12-28T02:56:06;100706.50;;;10.42;99.86
14117;BME280;7137;51.436;6.544;2023-12-28T02:59:08;100708.16;;;10.45;99.66
14117;BME280;7137;51.436;6.544;2023-12-28T03:02:09;100710.00;;;10.41;98.61
14117;BME280;7137;51.436;6.544;2023-12-28T03:05:11;100703.84;;;10.44;99.23
14117;BME280;7137;51.436;6.544;2023-12-28T03:08:12;100702.94;;;10.45;98.87
14117;BME280;7137;51.436;6.544;2023-12-28T03:11:15;100710.09;;;10.38;99.25
14117;BME280;7137;51.436;6.544;2023-12-28T03:14:17;100702.94;;;10.45;99.15
14117;BME280;7137;51.436;6.544;2023-12-28T03:17:19;100701.19;;;10.45;99.32
14117;BME280;7137;51.436;6.544;2023-12-28T03:20:21;100699.38;;;10.47;99.14
14117;BME280;7137;51.436;6.544;2023-12-28T03:23:22;100703.91;;;10.40;99.35
14117;BME280;7137;51.436;6.544;2023-12-28T03:26:25;100704.16;;;10.33;99.57
14117;BME280;7137;51.436;6.544;2023-12-28T03:29:27;100694.53;;;10.35;99.61
14117;BME280;7137;51.436;6.544;2023-12-28T03:32:28;100702.50;;;10.30;100.00
14117;BME280;7137;51.436;6.544;2023-12-28T03:36:07;100695.75;;;10.23;100.00
14117;BME280;7137;51.436;6.544;2023-12-28T03:39:09;100697.56;;;10.20;100.00
14117;BME280;7137;51.436;6.544;2023-12-28T03:42:12;100695.16;;;10.14;100.00
14117;BME280;7137;51.436;6.544;2023-12-28T03:45:13;100695.91;;;10.17;100.00
14117;BME280;7137;51.436;6.544;2023-12-28T03:48:15;100696.13;;;10.09;100.00
14117;BME280;7137;51.436;6.544;2023-12-28T03:51:16;100694.44;;;10.08;100.00
14117;BME280;7137;51.436;6.544;2023-12-28T03:54:18;100697.88;;;10.09;100.00
14117;BME280;7137;51.436;6.544;2023-12-28T03:57:21;100687.69;;;10.01;100.00
14117;BME280;7137;51.436;6.544;2023-12-28T04:00:23;100700.78;;;10.00;100.00
14117;BME280;7137;51.436;6.544;2023-12-28T04:03:24;100712.94;;;10.01;100.00
14117;BME280;7137;51.436;6.544;2023-12-28T04:06:26;100714.50;;;10.06;100.00
14117;BME280;7137;51.436;6.544;2023-12-28T04:09:28;100725.38;;;10.22;100.00
14117;BME280;7137;51.436;6.544;2023-12-28T04:12:31;100711.47;;;10.20;100.00
14117;BME280;7137;51.436;6.544;2023-12-28T04:15:32;100716.53;;;10.26;100.00
14117;BME280;7137;51.436;6.544;2023-12-28T04:18:33;100715.63;;;10.29;100.00
14117;BME280;7137;51.436;6.544;2023-12-28T04:21:35;100716.50;;;10.28;99.89
14117;BME280;7137;51.436;6.544;2023-12-28T04:24:36;100731.06;;;10.35;99.83
14117;BME280;7137;51.436;6.544;2023-12-28T04:27:39;100719.34;;;10.48;99.77
14117;BME280;7137;51.436;6.544;2023-12-28T04:30:42;100720.75;;;10.32;100.00
14117;BME280;7137;51.436;6.544;2023-12-28T04:33:43;100725.75;;;10.38;99.51
14117;BME280;7137;51.436;6.544;2023-12-28T04:36:45;100726.00;;;10.30;100.00
14117;BME280;7137;51.436;6.544;2023-12-28T04:39:46;100707.84;;;10.26;99.91
14117;BME280;7137;51.436;6.544;2023-12-28T04:42:49;100709.59;;;10.25;100.00
14117;BME280;7137;51.436;6.544;2023-12-28T04:45:51;100707.78;;;10.29;100.00
14117;BME280;7137;51.436;6.544;2023-12-28T04:48:52;100699.94;;;10.29;99.80
14117;BME280;7137;51.436;6.544;2023-12-28T04:51:54;100713.03;;;10.27;100.00
14117;BME280;7137;51.436;6.544;2023-12-28T04:54:55;100699.84;;;10.32;99.54
14117;BME280;7137;51.436;6.544;2023-12-28T04:57:58;100700.69;;;10.32;99.01
14117;BME280;7137;51.436;6.544;2023-12-28T05:01:01;100705.19;;;10.27;99.36
14117;BME280;7137;51.436;6.544;2023-12-28T05:04:03;100702.59;;;10.27;99.40
14117;BME280;7137;51.436;6.544;2023-12-28T05:07:04;100714.75;;;10.28;100.00
14117;BME280;7137;51.436;6.544;2023-12-28T05:10:06;100699.00;;;10.31;100.00
14117;BME280;7137;51.436;6.544;2023-12-28T05:13:09;100707.63;;;10.33;99.18
14117;BME280;7137;51.436;6.544;2023-12-28T05:16:11;100709.53;;;10.28;98.52
14117;BME280;7137;51.436;6.544;2023-12-28T05:19:12;100720.09;;;10.24;99.66
14117;BME280;7137;51.436;6.544;2023-12-28T05:22:14;100726.97;;;10.28;98.89
14117;BME280;7137;51.436;6.544;2023-12-28T05:25:15;100726.97;;;10.26;98.93
14117;BME280;7137;51.436;6.544;2023-12-28T05:28:18;100726.28;;;10.20;100.00
14117;BME280;7137;51.436;6.544;2023-12-28T05:31:19;100734.97;;;10.20;99.13
14117;BME280;7137;51.436;6.544;2023-12-28T05:34:21;100740.13;;;10.23;99.59
14117;BME280;7137;51.436;6.544;2023-12-28T05:37:22;100734.00;;;10.24;99.05
14117;BME280;7137;51.436;6.544;2023-12-28T05:40:23;100729.53;;;10.29;98.74
14117;BME280;7137;51.436;6.544;2023-12-28T05:43:26;100734.59;;;10.34;98.25
14117;BME280;7137;51.436;6.544;2023-12-28T05:46:28;100746.59;;;10.39;98.71
14117;BME280;7137;51.436;6.544;2023-12-28T05:49:29;100739.66;;;10.38;97.32
14117;BME280;7137;51.436;6.544;2023-12-28T05:52:31;100753.31;;;10.48;96.39
14117;BME280;7137;51.436;6.544;2023-12-28T05:55:32;100749.66;;;10.54;95.88
14117;BME280;7137;51.436;6.544;2023-12-28T05:58:35;100758.34;;;10.54;96.33
14117;BME280;7137;51.436;6.544;2023-12-28T06:01:42;100759.34;;;10.50;96.24
14117;BME280;7137;51.436;6.544;2023-12-28T06:04:44;100754.13;;;10.50;96.88
14117;BME280;7137;51.436;6.544;2023-12-28T06:07:45;100757.41;;;10.57;96.35
14117;BME280;7137;51.436;6.544;2023-12-28T06:10:47;100760.78;;;10.60;95.79
14117;BME280;7137;51.436;6.544;2023-12-28T06:13:49;100753.91;;;10.58;95.91
14117;BME280;7137;51.436;6.544;2023-12-28T06:16:51;100761.78;;;10.56;95.77
14117;BME280;7137;51.436;6.544;2023-12-28T06:19:52;100767.06;;;10.53;95.56
14117;BME280;7137;51.436;6.544;2023-12-28T06:22:54;100767.00;;;10.56;95.76
14117;BME280;7137;51.436;6.544;2023-12-28T06:25:55;100764.38;;;10.56;95.26
14117;BME280;7137;51.436;6.544;2023-12-28T06:28:58;100745.91;;;10.62;95.70
14117;BME280;7137;51.436;6.544;2023-12-28T06:31:59;100758.34;;;10.54;95.01
14117;BME280;7137;51.436;6.544;2023-12-28T06:35:01;100750.50;;;10.54;94.97
14117;BME280;7137;51.436;6.544;2023-12-28T06:38:03;100747.09;;;10.52;95.51
14117;BME280;7137;51.436;6.544;2023-12-28T06:41:10;100746.19;;;10.53;94.37
14117;BME280;7137;51.436;6.544;2023-12-28T06:44:13;100759.88;;;10.61;94.91
14117;BME280;7137;51.436;6.544;2023-12-28T06:47:15;100759.03;;;10.61;93.85
14117;BME280;7137;51.436;6.544;2023-12-28T06:50:16;100770.28;;;10.63;93.40
14117;BME280;7137;51.436;6.544;2023-12-28T06:53:17;100760.53;;;10.68;94.34
14117;BME280;7137;51.436;6.544;2023-12-28T06:56:19;100770.28;;;10.63;93.52
14117;BME280;7137;51.436;6.544;2023-12-28T06:59:22;100775.34;;;10.67;93.02
14117;BME280;7137;51.436;6.544;2023-12-28T07:02:23;100769.31;;;10.65;93.23
14117;BME280;7137;51.436;6.544;2023-12-28T07:05:25;100770.84;;;10.73;93.17
14117;BME280;7137;51.436;6.544;2023-12-28T07:08:26;100768.31;;;10.69;93.23
14117;BME280;7137;51.436;6.544;2023-12-28T07:11:27;100775.38;;;10.66;93.33
14117;BME280;7137;51.436;6.544;2023-12-28T07:14:30;100775.38;;;10.66;93.36
14117;BME280;7137;51.436;6.544;2023-12-28T07:17:32;100771.81;;;10.68;92.78
14117;BME280;7137;51.436;6.544;2023-12-28T07:20:33;100772.81;;;10.64;92.70
14117;BME280;7137;51.436;6.544;2023-12-28T07:23:35;100770.00;;;10.72;92.98
14117;BME280;7137;51.436;6.544;2023-12-28T07:26:36;100783.00;;;10.74;92.61
14117;BME280;7137;51.436;6.544;2023-12-28T07:29:40;100793.34;;;10.77;92.74
14117;BME280;7137;51.436;6.544;2023-12-28T07:32:41;100799.28;;;10.82;92.23
14117;BME280;7137;51.436;6.544;2023-12-28T07:35:43;100802.94;;;10.76;92.46
14117;BME280;7137;51.436;6.544;2023-12-28T07:38:44;100802.69;;;10.84;92.80
14117;BME280;7137;51.436;6.544;2023-12-28T07:41:46;100807.47;;;10.71;92.42
14117;BME280;7137;51.436;6.544;2023-12-28T07:44:49;100817.94;;;10.71;92.96
14117;BME280;7137;51.436;6.544;2023-12-28T07:47:50;100809.19;;;10.72;93.23
14117;BME280;7137;51.436;6.544;2023-12-28T07:50:52;100817.06;;;10.70;93.22
14117;BME280;7137;51.436;6.544;2023-12-28T07:53:53;100823.00;;;10.76;93.34
14117;BME280;7137;51.436;6.544;2023-12-28T07:56:55;100822.25;;;10.72;92.22
14117;BME280;7137;51.436;6.544;2023-12-28T07:59:57;100826.41;;;10.78;92.61
14117;BME280;7137;51.436;6.544;2023-12-28T08:02:59;100827.22;;;10.80;91.97
14117;BME280;7137;51.436;6.544;2023-12-28T08:06:00;100834.09;;;10.82;92.57
14117;BME280;7137;51.436;6.544;2023-12-28T08:09:02;100838.78;;;10.73;92.78
14117;BME280;7137;51.436;6.544;2023-12-28T08:12:05;100842.91;;;10.80;92.81
14117;BME280;7137;51.436;6.544;2023-12-28T08:15:08;100827.22;;;10.80;92.87
14117;BME280;7137;51.436;6.544;2023-12-28T08:18:10;100828.22;;;10.76;92.33
14117;BME280;7137;51.436;6.544;2023-12-28T08:21:11;100835.97;;;10.79;91.97
14117;BME280;7137;51.436;6.544;2023-12-28T08:24:13;100842.00;;;10.81;92.01
14117;BME280;7137;51.436;6.544;2023-12-28T08:27:15;100846.28;;;10.83;92.07
14117;BME280;7137;51.436;6.544;2023-12-28T08:30:17;100852.28;;;10.87;91.76
14117;BME280;7137;51.436;6.544;2023-12-28T08:33:19;100861.94;;;10.85;90.82
14117;BME280;7137;51.436;6.544;2023-12-28T08:36:20;100862.72;;;10.87;91.22
14117;BME280;7137;51.436;6.544;2023-12-28T08:39:22;100864.25;;;10.94;91.02
14117;BME280;7137;51.436;6.544;2023-12-28T08:42:23;100862.59;;;10.91;90.64
14117;BME280;7137;51.436;6.544;2023-12-28T08:45:26;100866.91;;;10.92;90.86
14117;BME280;7137;51.436;6.544;2023-12-28T08:48:28;100871.09;;;10.98;89.96
14117;BME280;7137;51.436;6.544;2023-12-28T08:51:29;100874.75;;;10.92;89.92
14117;BME280;7137;51.436;6.544;2023-12-28T08:54:31;100875.56;;;10.94;90.56
14117;BME280;7137;51.436;6.544;2023-12-28T08:57:32;100882.41;;;10.98;91.57
14117;BME280;7137;51.436;6.544;2023-12-28T09:00:35;100883.22;;;11.00;90.23
14117;BME280;7137;51.436;6.544;2023-12-28T09:03:36;100883.16;;;11.02;90.14
14117;BME280;7137;51.436;6.544;2023-12-28T09:06:38;100875.19;;;11.07;90.25
14117;BME280;7137;51.436;6.544;2023-12-28T09:09:40;100875.81;;;11.15;89.14
14117;BME280;7137;51.436;6.544;2023-12-28T09:12:42;100878.47;;;11.13;89.18
14117;BME280;7137;51.436;6.544;2023-12-28T09:15:45;100886.97;;;11.20;89.54
14117;BME280;7137;51.436;6.544;2023-12-28T09:18:47;100882.66;;;11.19;88.95
14117;BME280;7137;51.436;6.544;2023-12-28T09:21:48;100881.84;;;11.17;89.10
14117;BME280;7137;51.436;6.544;2023-12-28T09:24:50;100884.16;;;11.26;88.83
14117;BME280;7137;51.436;6.544;2023-12-28T09:27:52;100898.44;;;11.16;88.12
14117;BME280;7137;51.436;6.544;2023-12-28T09:30:55;100891.28;;;11.21;89.35
14117;BME280;7137;51.436;6.544;2023-12-28T09:33:56;100881.69;;;11.21;88.94
14117;BME280;7137;51.436;6.544;2023-12-28T09:36:58;100883.28;;;11.27;87.31
14117;BME280;7137;51.436;6.544;2023-12-28T09:39:59;100881.31;;;11.34;87.96
14117;BME280;7137;51.436;6.544;2023-12-28T09:43:09;100878.59;;;11.37;87.13
14117;BME280;7137;51.436;6.544;2023-12-28T09:46:15;100881.81;;;11.45;87.12
14117;BME280;7137;51.436;6.544;2023-12-28T09:49:17;100886.03;;;11.49;86.46
14117;BME280;7137;51.436;6.544;2023-12-28T09:52:18;100896.81;;;11.66;86.21
14117;BME280;7137;51.436;6.544;2023-12-28T09:55:20;100893.25;;;11.69;86.63
14117;BME280;7137;51.436;6.544;2023-12-28T09:58:22;100891.50;;;11.69;85.42
14117;BME280;7137;51.436;6.544;2023-12-28T10:01:25;100889.72;;;11.70;85.69
14117;BME280;7137;51.436;6.544;2023-12-28T10:04:27;100894.25;;;11.65;84.89
14117;BME280;7137;51.436;6.544;2023-12-28T10:07:31;100903.06;;;11.62;85.05
14117;BME280;7137;51.436;6.544;2023-12-28T10:10:32;100890.25;;;11.54;84.66
14117;BME280;7137;51.436;6.544;2023-12-28T10:13:34;100888.59;;;11.50;84.49
14117;BME280;7137;51.436;6.544;2023-12-28T10:16:40;100894.56;;;11.55;84.46
14117;BME280;7137;51.436;6.544;2023-12-28T10:19:41;100887.56;;;11.56;84.46
14117;BME280;7137;51.436;6.544;2023-12-28T10:22:47;100884.84;;;11.59;84.03
14117;BME280;7137;51.436;6.544;2023-12-28T10:25:50;100882.97;;;11.63;84.18
14117;BME280;7137;51.436;6.544;2023-12-28T10:28:57;100892.06;;;11.77;83.73
14117;BME280;7137;51.436;6.544;2023-12-28T10:32:01;100891.38;;;11.72;83.38
14117;BME280;7137;51.436;6.544;2023-12-28T10:35:04;100887.69;;;11.78;84.30
14117;BME280;7137;51.436;6.544;2023-12-28T10:38:07;100890.66;;;11.67;83.45
14117;BME280;7137;51.436;6.544;2023-12-28T10:41:13;100882.97;;;11.63;85.39
14117;BME280;7137;51.436;6.544;2023-12-28T10:44:17;100879.72;;;11.56;84.40
14117;BME280;7137;51.436;6.544;2023-12-28T10:47:22;100884.56;;;11.67;84.54
14117;BME280;7137;51.436;6.544;2023-12-28T10:50:28;100887.19;;;11.67;84.23
14117;BME280;7137;51.436;6.544;2023-12-28T10:53:37;100885.88;;;11.53;85.01
14117;BME280;7137;51.436;6.544;2023-12-28T10:56:42;100892.25;;;11.73;84.20
14117;BME280;7137;51.436;6.544;2023-12-28T10:59:52;100890.31;;;11.78;85.49
14117;BME280;7137;51.436;6.544;2023-12-28T11:03:02;100894.53;;;11.83;84.24
14117;BME280;7137;51.436;6.544;2023-12-28T11:06:06;100879.44;;;11.64;84.86
14117;BME280;7137;51.436;6.544;2023-12-28T11:09:09;100888.03;;;11.67;85.83
14117;BME280;7137;51.436;6.544;2023-12-28T11:12:11;100883.66;;;11.69;85.10
14117;BME280;7137;51.436;6.544;2023-12-28T11:15:13;100878.13;;;11.77;85.38
14117;BME280;7137;51.436;6.544;2023-12-28T11:18:17;100880.81;;;11.75;84.69
14117;BME280;7137;51.436;6.544;2023-12-28T11:21:22;100879.09;;;11.74;84.16
14117;BME280;7137;51.436;6.544;2023-12-28T11:24:24;100872.97;;;11.75;83.65
14117;BME280;7137;51.436;6.544;2023-12-28T11:27:33;100867.50;;;11.83;84.25
14117;BME280;7137;51.436;6.544;2023-12-28T11:30:35;100871.56;;;11.92;83.01
14117;BME280;7137;51.436;6.544;2023-12-28T11:33:44;100864.50;;;11.94;84.31
14117;BME280;7137;51.436;6.544;2023-12-28T11:36:49;100872.53;;;11.89;83.34
14117;BME280;7137;51.436;6.544;2023-12-28T11:39:51;100854.78;;;11.97;83.04
14117;BME280;7137;51.436;6.544;2023-12-28T11:42:54;100855.09;;;11.88;83.54
14117;BME280;7137;51.436;6.544;2023-12-28T11:45:56;100860.78;;;12.01;82.37
14117;BME280;7137;51.436;6.544;2023-12-28T11:49:06;100843.13;;;12.06;83.48
14117;BME280;7137;51.436;6.544;2023-12-28T11:52:09;100849.38;;;12.02;83.64
14117;BME280;7137;51.436;6.544;2023-12-28T11:55:11;100842.44;;;12.01;82.20
14117;BME280;7137;51.436;6.544;2023-12-28T11:58:13;100833.63;;;12.03;83.43
14117;BME280;7137;51.436;6.544;2023-12-28T12:01:14;100837.03;;;12.05;83.48
14117;BME280;7137;51.436;6.544;2023-12-28T12:04:17;100833.69;;;12.02;82.71
14117;BME280;7137;51.436;6.544;2023-12-28T12:07:18;100830.41;;;11.95;84.42
14117;BME280;7137;51.436;6.544;2023-12-28T12:10:20;100827.31;;;12.09;83.67
14117;BME280;7137;51.436;6.544;2023-12-28T12:13:22;100814.81;;;11.92;82.94
14117;BME280;7137;51.436;6.544;2023-12-28T12:16:23;100798.91;;;11.98;82.31
14117;BME280;7137;51.436;6.544;2023-12-28T12:19:27;100795.69;;;12.15;82.64
14117;BME280;7137;51.436;6.544;2023-12-28T12:22:29;100797.00;;;12.27;84.05
14117;BME280;7137;51.436;6.544;2023-12-28T12:25:30;100801.31;;;12.28;81.32
14117;BME280;7137;51.436;6.544;2023-12-28T12:28:32;100799.75;;;12.22;80.22
14117;BME280;7137;51.436;6.544;2023-12-28T12:31:33;100799.03;;;12.18;81.23
14117;BME280;7137;51.436;6.544;2023-12-28T12:34:37;100795.31;;;12.24;81.57
14117;BME280;7137;51.436;6.544;2023-12-28T12:37:40;100791.41;;;12.12;80.35
14117;BME280;7137;51.436;6.544;2023-12-28T12:40:42;100791.22;;;12.17;80.10
14117;BME280;7137;51.436;6.544;2023-12-28T12:43:43;100793.72;;;12.20;82.67
14117;BME280;7137;51.436;6.544;2023-12-28T12:46:46;100797.41;;;12.38;82.66
14117;BME280;7137;51.436;6.544;2023-12-28T12:49:51;100795.28;;;12.26;79.67
14117;BME280;7137;51.436;6.544;2023-12-28T12:52:52;100789.72;;;12.10;81.50
14117;BME280;7137;51.436;6.544;2023-12-28T12:56:00;100793.06;;;12.15;82.16
14117;BME280;7137;51.436;6.544;2023-12-28T12:59:02;100792.53;;;12.05;81.10
14117;BME280;7137;51.436;6.544;2023-12-28T13:02:07;100791.34;;;12.14;81.46
14117;BME280;7137;51.436;6.544;2023-12-28T13:05:11;100801.22;;;12.06;81.94
14117;BME280;7137;51.436;6.544;2023-12-28T13:08:13;100788.09;;;12.07;80.67
14117;BME280;7137;51.436;6.544;2023-12-28T13:11:15;100788.03;;;12.09;80.71
14117;BME280;7137;51.436;6.544;2023-12-28T13:18:13;100776.50;;;12.14;81.70
14117;BME280;7137;51.436;6.544;2023-12-28T13:21:16;100781.19;;;12.05;81.84
14117;BME280;7137;51.436;6.544;2023-12-28T13:24:18;100777.72;;;12.04;83.37
14117;BME280;7137;51.436;6.544;2023-12-28T13:27:19;100774.13;;;12.07;83.38
14117;BME280;7137;51.436;6.544;2023-12-28T13:30:21;100779.50;;;12.04;82.12
14117;BME280;7137;51.436;6.544;2023-12-28T13:33:23;100779.38;;;12.07;82.49
14117;BME280;7137;51.436;6.544;2023-12-28T13:36:26;100774.50;;;11.98;82.80
14117;BME280;7137;51.436;6.544;2023-12-28T13:39:28;100766.53;;;12.01;81.46
14117;BME280;7137;51.436;6.544;2023-12-28T13:42:30;100757.69;;;12.03;80.86
14117;BME280;7137;51.436;6.544;2023-12-28T13:45:31;100765.31;;;12.09;80.58
14117;BME280;7137;51.436;6.544;2023-12-28T13:48:33;100762.25;;;11.98;81.92
14117;BME280;7137;51.436;6.544;2023-12-28T13:51:37;100753.38;;;12.02;82.19
14117;BME280;7137;51.436;6.544;2023-12-28T13:54:38;100762.47;;;11.92;82.40
14117;BME280;7137;51.436;6.544;2023-12-28T13:57:40;100759.97;;;11.89;83.15
14117;BME280;7137;51.436;6.544;2023-12-28T14:00:42;100753.75;;;11.92;83.02
14117;BME280;7137;51.436;6.544;2023-12-28T14:03:44;100748.69;;;11.87;82.52
14117;BME280;7137;51.436;6.544;2023-12-28T14:06:47;100750.75;;;11.77;81.91
14117;BME280;7137;51.436;6.544;2023-12-28T14:09:48;100751.44;;;11.84;82.76
14117;BME280;7137;51.436;6.544;2023-12-28T14:12:50;100758.38;;;11.85;82.79
14117;BME280;7137;51.436;6.544;2023-12-28T14:15:51;100762.00;;;11.81;82.24
14117;BME280;7137;51.436;6.544;2023-12-28T14:18:53;100769.06;;;11.77;81.45
14117;BME280;7137;51.436;6.544;2023-12-28T14:21:56;100768.22;;;11.77;81.48
14117;BME280;7137;51.436;6.544;2023-12-28T14:24:58;100763.34;;;11.66;82.42
14117;BME280;7137;51.436;6.544;2023-12-28T14:28:00;100761.59;;;11.67;81.94
14117;BME280;7137;51.436;6.544;2023-12-28T14:31:02;100775.63;;;11.64;82.43
14117;BME280;7137;51.436;6.544;2023-12-28T14:34:04;100770.28;;;11.69;83.97
14117;BME280;7137;51.436;6.544;2023-12-28T14:37:08;100773.50;;;11.75;82.40
14117;BME280;7137;51.436;6.544;2023-12-28T14:40:10;100772.28;;;11.60;83.00
14117;BME280;7137;51.436;6.544;2023-12-28T14:43:12;100776.56;;;11.63;82.24
14117;BME280;7137;51.436;6.544;2023-12-28T14:46:13;100770.41;;;11.64;82.69
14117;BME280;7137;51.436;6.544;2023-12-28T14:49:15;100759.44;;;11.54;82.31
14117;BME280;7137;51.436;6.544;2023-12-28T14:52:18;100764.81;;;11.50;83.41
14117;BME280;7137;51.436;6.544;2023-12-28T14:55:19;100761.63;;;11.42;83.65
14117;BME280;7137;51.436;6.544;2023-12-28T14:58:23;100766.78;;;11.43;83.22
14117;BME280;7137;51.436;6.544;2023-12-28T15:01:24;100759.94;;;11.39;83.62
14117;BME280;7137;51.436;6.544;2023-12-28T15:04:26;100755.94;;;11.29;83.90
14117;BME280;7137;51.436;6.544;2023-12-28T15:07:29;100760.63;;;11.19;83.81
14117;BME280;7137;51.436;6.544;2023-12-28T15:10:31;100760.16;;;11.07;84.24
14117;BME280;7137;51.436;6.544;2023-12-28T15:13:33;100770.78;;;11.02;84.76
14117;BME280;7137;51.436;6.544;2023-12-28T15:16:35;100757.81;;;10.99;85.32
14117;BME280;7137;51.436;6.544;2023-12-28T15:19:36;100762.94;;;11.02;84.55
14117;BME280;7137;51.436;6.544;2023-12-28T15:22:40;100755.72;;;11.09;84.50
14117;BME280;7137;51.436;6.544;2023-12-28T15:25:42;100759.91;;;11.14;85.31
14117;BME280;7137;51.436;6.544;2023-12-28T15:28:45;100757.38;;;11.11;84.95
14117;BME280;7137;51.436;6.544;2023-12-28T15:31:47;100756.41;;;11.15;84.72
14117;BME280;7137;51.436;6.544;2023-12-28T15:34:48;100755.44;;;11.18;84.16
14117;BME280;7137;51.436;6.544;2023-12-28T15:37:51;100751.69;;;11.26;84.04
14117;BME280;7137;51.436;6.544;2023-12-28T15:40:53;100748.94;;;11.29;84.51
14117;BME280;7137;51.436;6.544;2023-12-28T15:43:54;100735.22;;;11.23;83.85
14117;BME280;7137;51.436;6.544;2023-12-28T15:46:55;100738.91;;;11.17;84.01
14117;BME280;7137;51.436;6.544;2023-12-28T15:49:57;100734.63;;;11.15;84.17
14117;BME280;7137;51.436;6.544;2023-12-28T15:53:00;100727.75;;;11.12;83.52
14117;BME280;7137;51.436;6.544;2023-12-28T15:56:01;100736.13;;;11.22;84.20
14117;BME280;7137;51.436;6.544;2023-12-28T15:59:03;100737.88;;;11.21;83.49
14117;BME280;7137;51.436;6.544;2023-12-28T16:02:04;100743.28;;;11.17;83.51
14117;BME280;7137;51.436;6.544;2023-12-28T16:05:06;100735.66;;;11.09;84.09
14117;BME280;7137;51.436;6.544;2023-12-28T16:08:09;100743.09;;;11.21;83.32
14117;BME280;7137;51.436;6.544;2023-12-28T16:11:10;100732.06;;;11.13;83.41